sensor_id;sensor_type;location;lat;lon;timestamp;P1;durP1;ratioP1;P2;durP2;ratioP2
75044;SDS011;63614;56.026;35.960;2022-11-18T00:01:15;8.50;;;4.20;;
75044;SDS011;63614;56.026;35.960;2022-11-18T00:03:43;5.93;;;3.72;;
75044;SDS011;63614;56.026;35.960;2022-11-18T00:06:10;5.65;;;3.45;;
75044;SDS011;63614;56.026;35.960;2022-11-18T00:08:38;6.45;;;3.45;;
75044;SDS011;63614;56.026;35.960;2022-11-18T00:11:06;5.95;;;3.72;;
75044;SDS011;63614;56.026;35.960;2022-11-18T00:13:33;6.35;;;3.83;;
75044;SDS011;63614;56.026;35.960;2022-11-18T00:16:18;8.98;;;3.72;;
75044;SDS011;63614;56.026;35.960;2022-11-18T00:18:44;7.22;;;3.40;;
75044;SDS011;63614;56.026;35.960;2022-11-18T00:21:10;5.57;;;3.58;;
75044;SDS011;63614;56.026;35.960;2022-11-18T00:23:37;7.43;;;4.18;;
75044;SDS011;63614;56.026;35.960;2022-11-18T00:28:31;8.32;;;4.07;;
75044;SDS011;63614;56.026;35.960;2022-11-18T00:31:01;7.00;;;4.10;;
75044;SDS011;63614;56.026;35.960;2022-11-18T00:33:27;7.40;;;4.13;;
75044;SDS011;63614;56.026;35.960;2022-11-18T00:35:54;6.55;;;4.05;;
75044;SDS011;63614;56.026;35.960;2022-11-18T00:38:20;5.45;;;3.60;;
75044;SDS011;63614;56.026;35.960;2022-11-18T00:40:46;8.07;;;4.78;;
75044;SDS011;63614;56.026;35.960;2022-11-18T00:43:12;9.07;;;3.55;;
75044;SDS011;63614;56.026;35.960;2022-11-18T00:45:38;9.23;;;4.20;;
75044;SDS011;63614;56.026;35.960;2022-11-18T00:48:04;6.50;;;4.13;;
75044;SDS011;63614;56.026;35.960;2022-11-18T00:50:30;8.07;;;4.53;;
75044;SDS011;63614;56.026;35.960;2022-11-18T00:52:57;8.32;;;4.47;;
75044;SDS011;63614;56.026;35.960;2022-11-18T00:55:23;7.70;;;4.80;;
75044;SDS011;63614;56.026;35.960;2022-11-18T00:57:49;7.55;;;4.47;;
75044;SDS011;63614;56.026;35.960;2022-11-18T01:00:15;8.30;;;4.57;;
75044;SDS011;63614;56.026;35.960;2022-11-18T01:02:42;12.60;;;4.80;;
75044;SDS011;63614;56.026;35.960;2022-11-18T01:05:08;7.03;;;4.30;;
75044;SDS011;63614;56.026;35.960;2022-11-18T01:07:33;7.50;;;4.28;;
75044;SDS011;63614;56.026;35.960;2022-11-18T01:09:59;7.93;;;4.57;;
75044;SDS011;63614;56.026;35.960;2022-11-18T01:12:25;7.50;;;4.68;;
75044;SDS011;63614;56.026;35.960;2022-11-18T01:15:09;7.85;;;4.45;;
75044;SDS011;63614;56.026;35.960;2022-11-18T01:17:35;5.88;;;3.35;;
75044;SDS011;63614;56.026;35.960;2022-11-18T01:20:01;6.22;;;3.83;;
75044;SDS011;63614;56.026;35.960;2022-11-18T01:22:28;7.43;;;4.22;;
75044;SDS011;63614;56.026;35.960;2022-11-18T01:24:54;6.35;;;3.63;;
75044;SDS011;63614;56.026;35.960;2022-11-18T01:27:20;9.40;;;4.72;;
75044;SDS011;63614;56.026;35.960;2022-11-18T01:29:46;5.57;;;2.95;;
75044;SDS011;63614;56.026;35.960;2022-11-18T01:32:12;9.15;;;4.25;;
75044;SDS011;63614;56.026;35.960;2022-11-18T01:34:38;8.38;;;4.53;;
75044;SDS011;63614;56.026;35.960;2022-11-18T01:37:03;9.35;;;4.03;;
75044;SDS011;63614;56.026;35.960;2022-11-18T01:39:29;8.70;;;4.22;;
75044;SDS011;63614;56.026;35.960;2022-11-18T01:41:55;6.78;;;4.55;;
75044;SDS011;63614;56.026;35.960;2022-11-18T01:47:24;6.20;;;4.28;;
75044;SDS011;63614;56.026;35.960;2022-11-18T01:49:56;8.52;;;4.75;;
75044;SDS011;63614;56.026;35.960;2022-11-18T01:54:50;8.00;;;4.70;;
75044;SDS011;63614;56.026;35.960;2022-11-18T01:57:21;8.60;;;4.35;;
75044;SDS011;63614;56.026;35.960;2022-11-18T01:59:52;8.15;;;4.90;;
75044;SDS011;63614;56.026;35.960;2022-11-18T02:02:20;7.90;;;4.57;;
75044;SDS011;63614;56.026;35.960;2022-11-18T02:04:47;6.95;;;4.20;;
75044;SDS011;63614;56.026;35.960;2022-11-18T02:07:16;12.77;;;5.03;;
75044;SDS011;63614;56.026;35.960;2022-11-18T02:09:43;6.93;;;3.73;;
75044;SDS011;63614;56.026;35.960;2022-11-18T02:12:09;7.25;;;3.85;;
75044;SDS011;63614;56.026;35.960;2022-11-18T02:14:37;7.37;;;3.93;;
75044;SDS011;63614;56.026;35.960;2022-11-18T02:20:26;7.55;;;4.18;;
75044;SDS011;63614;56.026;35.960;2022-11-18T02:25:58;7.60;;;4.55;;
75044;SDS011;63614;56.026;35.960;2022-11-18T02:28:35;7.43;;;4.18;;
75044;SDS011;63614;56.026;35.960;2022-11-18T02:31:21;6.63;;;4.00;;
75044;SDS011;63614;56.026;35.960;2022-11-18T02:33:53;7.30;;;4.13;;
75044;SDS011;63614;56.026;35.960;2022-11-18T02:36:27;7.65;;;4.15;;
75044;SDS011;63614;56.026;35.960;2022-11-18T02:42:05;9.25;;;4.35;;
75044;SDS011;63614;56.026;35.960;2022-11-18T02:44:36;5.97;;;3.78;;
75044;SDS011;63614;56.026;35.960;2022-11-18T02:47:04;10.32;;;3.90;;
75044;SDS011;63614;56.026;35.960;2022-11-18T02:49:49;8.25;;;4.15;;
75044;SDS011;63614;56.026;35.960;2022-11-18T02:52:19;7.28;;;3.92;;
75044;SDS011;63614;56.026;35.960;2022-11-18T02:54:47;6.57;;;4.13;;
75044;SDS011;63614;56.026;35.960;2022-11-18T02:57:14;8.25;;;4.93;;
75044;SDS011;63614;56.026;35.960;2022-11-18T03:02:09;8.82;;;4.60;;
75044;SDS011;63614;56.026;35.960;2022-11-18T03:04:40;10.35;;;4.28;;
75044;SDS011;63614;56.026;35.960;2022-11-18T03:07:09;7.13;;;3.78;;
75044;SDS011;63614;56.026;35.960;2022-11-18T03:09:45;9.38;;;4.32;;
75044;SDS011;63614;56.026;35.960;2022-11-18T03:12:35;7.07;;;4.47;;
75044;SDS011;63614;56.026;35.960;2022-11-18T03:23:39;6.78;;;3.50;;
75044;SDS011;63614;56.026;35.960;2022-11-18T03:26:17;8.63;;;4.38;;
75044;SDS011;63614;56.026;35.960;2022-11-18T03:28:49;8.05;;;4.35;;
75044;SDS011;63614;56.026;35.960;2022-11-18T03:31:27;7.00;;;4.03;;
75044;SDS011;63614;56.026;35.960;2022-11-18T03:33:58;5.97;;;3.60;;
75044;SDS011;63614;56.026;35.960;2022-11-18T03:36:34;6.53;;;3.70;;
75044;SDS011;63614;56.026;35.960;2022-11-18T03:39:06;6.20;;;3.40;;
75044;SDS011;63614;56.026;35.960;2022-11-18T03:41:37;9.15;;;4.97;;
75044;SDS011;63614;56.026;35.960;2022-11-18T03:44:12;5.68;;;3.40;;
75044;SDS011;63614;56.026;35.960;2022-11-18T03:46:58;7.57;;;4.30;;
75044;SDS011;63614;56.026;35.960;2022-11-18T03:49:32;7.00;;;4.43;;
75044;SDS011;63614;56.026;35.960;2022-11-18T03:52:06;6.47;;;3.92;;
75044;SDS011;63614;56.026;35.960;2022-11-18T03:54:37;6.97;;;3.97;;
75044;SDS011;63614;56.026;35.960;2022-11-18T03:57:07;5.50;;;4.03;;
75044;SDS011;63614;56.026;35.960;2022-11-18T03:59:38;6.75;;;3.80;;
75044;SDS011;63614;56.026;35.960;2022-11-18T04:02:11;8.93;;;3.92;;
75044;SDS011;63614;56.026;35.960;2022-11-18T04:04:40;7.75;;;4.13;;
75044;SDS011;63614;56.026;35.960;2022-11-18T04:07:10;6.53;;;3.75;;
75044;SDS011;63614;56.026;35.960;2022-11-18T04:13:11;6.30;;;3.53;;
75044;SDS011;63614;56.026;35.960;2022-11-18T04:15:42;6.20;;;3.95;;
75044;SDS011;63614;56.026;35.960;2022-11-18T04:18:08;7.10;;;3.58;;
75044;SDS011;63614;56.026;35.960;2022-11-18T04:20:35;7.57;;;4.97;;
75044;SDS011;63614;56.026;35.960;2022-11-18T04:23:02;7.95;;;4.20;;
75044;SDS011;63614;56.026;35.960;2022-11-18T04:25:29;6.10;;;4.00;;
75044;SDS011;63614;56.026;35.960;2022-11-18T04:27:54;6.47;;;3.53;;
75044;SDS011;63614;56.026;35.960;2022-11-18T04:30:20;9.20;;;4.00;;
75044;SDS011;63614;56.026;35.960;2022-11-18T04:32:46;7.50;;;4.57;;
75044;SDS011;63614;56.026;35.960;2022-11-18T04:35:13;6.55;;;3.70;;
75044;SDS011;63614;56.026;35.960;2022-11-18T04:37:39;6.70;;;4.40;;
75044;SDS011;63614;56.026;35.960;2022-11-18T04:40:05;6.53;;;3.70;;
75044;SDS011;63614;56.026;35.960;2022-11-18T04:42:31;7.47;;;3.97;;
75044;SDS011;63614;56.026;35.960;2022-11-18T04:44:57;6.63;;;4.10;;
75044;SDS011;63614;56.026;35.960;2022-11-18T04:47:23;8.50;;;4.85;;
75044;SDS011;63614;56.026;35.960;2022-11-18T04:49:49;7.18;;;4.05;;
75044;SDS011;63614;56.026;35.960;2022-11-18T04:52:15;6.72;;;3.88;;
75044;SDS011;63614;56.026;35.960;2022-11-18T04:54:41;6.53;;;4.10;;
75044;SDS011;63614;56.026;35.960;2022-11-18T04:57:07;6.15;;;4.10;;
75044;SDS011;63614;56.026;35.960;2022-11-18T04:59:33;6.57;;;4.15;;
75044;SDS011;63614;56.026;35.960;2022-11-18T05:01:59;6.82;;;4.07;;
75044;SDS011;63614;56.026;35.960;2022-11-18T05:04:27;6.57;;;3.97;;
75044;SDS011;63614;56.026;35.960;2022-11-18T05:06:55;6.28;;;3.75;;
75044;SDS011;63614;56.026;35.960;2022-11-18T05:09:21;7.25;;;4.20;;
75044;SDS011;63614;56.026;35.960;2022-11-18T05:11:47;5.75;;;3.78;;
75044;SDS011;63614;56.026;35.960;2022-11-18T05:14:32;6.63;;;4.07;;
75044;SDS011;63614;56.026;35.960;2022-11-18T05:16:59;6.18;;;3.90;;
75044;SDS011;63614;56.026;35.960;2022-11-18T05:19:26;8.25;;;4.13;;
75044;SDS011;63614;56.026;35.960;2022-11-18T05:21:52;5.80;;;3.80;;
75044;SDS011;63614;56.026;35.960;2022-11-18T05:24:18;7.55;;;4.22;;
75044;SDS011;63614;56.026;35.960;2022-11-18T05:26:44;8.48;;;4.78;;
75044;SDS011;63614;56.026;35.960;2022-11-18T05:29:10;7.38;;;3.75;;
75044;SDS011;63614;56.026;35.960;2022-11-18T05:31:37;9.03;;;4.50;;
75044;SDS011;63614;56.026;35.960;2022-11-18T05:34:03;8.70;;;4.28;;
75044;SDS011;63614;56.026;35.960;2022-11-18T05:36:29;7.22;;;3.70;;
75044;SDS011;63614;56.026;35.960;2022-11-18T05:38:57;6.65;;;3.90;;
75044;SDS011;63614;56.026;35.960;2022-11-18T05:41:23;8.02;;;4.20;;
75044;SDS011;63614;56.026;35.960;2022-11-18T05:44:08;9.55;;;3.95;;
75044;SDS011;63614;56.026;35.960;2022-11-18T05:46:33;5.38;;;3.70;;
75044;SDS011;63614;56.026;35.960;2022-11-18T05:48:59;5.57;;;3.33;;
75044;SDS011;63614;56.026;35.960;2022-11-18T05:51:25;8.82;;;4.68;;
75044;SDS011;63614;56.026;35.960;2022-11-18T05:53:51;10.65;;;4.70;;
75044;SDS011;63614;56.026;35.960;2022-11-18T05:56:29;8.45;;;4.18;;
75044;SDS011;63614;56.026;35.960;2022-11-18T05:59:00;5.93;;;3.90;;
75044;SDS011;63614;56.026;35.960;2022-11-18T06:01:27;9.88;;;4.20;;
75044;SDS011;63614;56.026;35.960;2022-11-18T06:04:06;6.95;;;4.00;;
75044;SDS011;63614;56.026;35.960;2022-11-18T06:06:35;6.32;;;3.67;;
75044;SDS011;63614;56.026;35.960;2022-11-18T06:09:03;10.77;;;4.07;;
75044;SDS011;63614;56.026;35.960;2022-11-18T06:11:31;6.15;;;4.20;;
75044;SDS011;63614;56.026;35.960;2022-11-18T06:14:06;6.78;;;3.78;;
75044;SDS011;63614;56.026;35.960;2022-11-18T06:16:38;6.85;;;4.18;;
75044;SDS011;63614;56.026;35.960;2022-11-18T06:19:12;6.03;;;3.35;;
75044;SDS011;63614;56.026;35.960;2022-11-18T06:21:38;14.52;;;3.63;;
75044;SDS011;63614;56.026;35.960;2022-11-18T06:24:04;6.13;;;3.72;;
75044;SDS011;63614;56.026;35.960;2022-11-18T06:26:31;7.03;;;3.90;;
75044;SDS011;63614;56.026;35.960;2022-11-18T06:28:57;7.63;;;4.30;;
75044;SDS011;63614;56.026;35.960;2022-11-18T06:31:23;12.10;;;4.60;;
75044;SDS011;63614;56.026;35.960;2022-11-18T06:33:49;7.03;;;4.63;;
75044;SDS011;63614;56.026;35.960;2022-11-18T06:36:15;7.35;;;3.95;;
75044;SDS011;63614;56.026;35.960;2022-11-18T06:38:41;5.60;;;3.70;;
75044;SDS011;63614;56.026;35.960;2022-11-18T06:41:06;6.53;;;4.10;;
75044;SDS011;63614;56.026;35.960;2022-11-18T06:43:32;4.30;;;2.60;;
75044;SDS011;63614;56.026;35.960;2022-11-18T06:46:10;7.78;;;3.35;;
75044;SDS011;63614;56.026;35.960;2022-11-18T06:48:56;8.85;;;3.95;;
75044;SDS011;63614;56.026;35.960;2022-11-18T06:51:23;13.48;;;5.72;;
75044;SDS011;63614;56.026;35.960;2022-11-18T06:53:50;5.78;;;3.45;;
75044;SDS011;63614;56.026;35.960;2022-11-18T06:56:16;8.30;;;4.28;;
75044;SDS011;63614;56.026;35.960;2022-11-18T06:58:44;6.72;;;4.07;;
75044;SDS011;63614;56.026;35.960;2022-11-18T07:01:11;6.00;;;3.80;;
75044;SDS011;63614;56.026;35.960;2022-11-18T07:03:48;16.83;;;4.68;;
75044;SDS011;63614;56.026;35.960;2022-11-18T07:06:15;6.78;;;4.03;;
75044;SDS011;63614;56.026;35.960;2022-11-18T07:08:43;5.90;;;3.55;;
75044;SDS011;63614;56.026;35.960;2022-11-18T07:11:10;7.03;;;4.30;;
75044;SDS011;63614;56.026;35.960;2022-11-18T07:13:37;10.30;;;4.30;;
75044;SDS011;63614;56.026;35.960;2022-11-18T07:16:08;9.00;;;4.07;;
75044;SDS011;63614;56.026;35.960;2022-11-18T07:18:42;8.40;;;3.97;;
75044;SDS011;63614;56.026;35.960;2022-11-18T07:21:10;5.60;;;3.50;;
75044;SDS011;63614;56.026;35.960;2022-11-18T07:23:44;7.78;;;3.50;;
75044;SDS011;63614;56.026;35.960;2022-11-18T07:26:11;9.20;;;4.38;;
75044;SDS011;63614;56.026;35.960;2022-11-18T07:28:37;7.97;;;3.97;;
75044;SDS011;63614;56.026;35.960;2022-11-18T07:31:04;8.77;;;4.18;;
75044;SDS011;63614;56.026;35.960;2022-11-18T07:33:35;6.15;;;3.63;;
75044;SDS011;63614;56.026;35.960;2022-11-18T07:36:06;5.30;;;3.60;;
75044;SDS011;63614;56.026;35.960;2022-11-18T07:38:34;7.18;;;4.18;;
75044;SDS011;63614;56.026;35.960;2022-11-18T07:41:07;6.63;;;3.97;;
75044;SDS011;63614;56.026;35.960;2022-11-18T07:43:35;5.90;;;4.00;;
75044;SDS011;63614;56.026;35.960;2022-11-18T07:48:43;5.80;;;3.28;;
75044;SDS011;63614;56.026;35.960;2022-11-18T07:51:11;5.90;;;3.47;;
75044;SDS011;63614;56.026;35.960;2022-11-18T07:53:37;7.07;;;4.07;;
75044;SDS011;63614;56.026;35.960;2022-11-18T07:56:04;6.32;;;4.00;;
75044;SDS011;63614;56.026;35.960;2022-11-18T07:58:30;6.65;;;3.83;;
75044;SDS011;63614;56.026;35.960;2022-11-18T08:00:56;5.45;;;3.63;;
75044;SDS011;63614;56.026;35.960;2022-11-18T08:03:26;8.48;;;3.67;;
75044;SDS011;63614;56.026;35.960;2022-11-18T08:05:53;6.43;;;3.97;;
75044;SDS011;63614;56.026;35.960;2022-11-18T08:08:23;9.32;;;3.92;;
75044;SDS011;63614;56.026;35.960;2022-11-18T08:10:49;5.78;;;3.33;;
75044;SDS011;63614;56.026;35.960;2022-11-18T08:13:15;7.25;;;3.78;;
75044;SDS011;63614;56.026;35.960;2022-11-18T08:15:41;10.27;;;4.00;;
75044;SDS011;63614;56.026;35.960;2022-11-18T08:18:07;6.03;;;3.70;;
75044;SDS011;63614;56.026;35.960;2022-11-18T08:20:34;4.43;;;3.22;;
75044;SDS011;63614;56.026;35.960;2022-11-18T08:23:00;5.38;;;3.30;;
75044;SDS011;63614;56.026;35.960;2022-11-18T08:25:26;6.07;;;4.07;;
75044;SDS011;63614;56.026;35.960;2022-11-18T08:27:52;9.52;;;4.05;;
75044;SDS011;63614;56.026;35.960;2022-11-18T08:30:18;6.65;;;4.32;;
75044;SDS011;63614;56.026;35.960;2022-11-18T08:32:44;7.47;;;4.28;;
75044;SDS011;63614;56.026;35.960;2022-11-18T08:35:10;11.50;;;4.80;;
75044;SDS011;63614;56.026;35.960;2022-11-18T08:37:37;6.33;;;3.53;;
75044;SDS011;63614;56.026;35.960;2022-11-18T08:40:03;7.60;;;4.18;;
75044;SDS011;63614;56.026;35.960;2022-11-18T08:42:29;7.47;;;4.22;;
75044;SDS011;63614;56.026;35.960;2022-11-18T08:44:56;7.35;;;3.42;;
75044;SDS011;63614;56.026;35.960;2022-11-18T08:47:22;6.03;;;3.00;;
75044;SDS011;63614;56.026;35.960;2022-11-18T08:49:48;8.25;;;3.67;;
75044;SDS011;63614;56.026;35.960;2022-11-18T08:52:14;5.18;;;3.35;;
75044;SDS011;63614;56.026;35.960;2022-11-18T08:54:40;12.13;;;5.40;;
75044;SDS011;63614;56.026;35.960;2022-11-18T08:57:05;7.38;;;4.25;;
75044;SDS011;63614;56.026;35.960;2022-11-18T08:59:33;5.68;;;3.80;;
75044;SDS011;63614;56.026;35.960;2022-11-18T09:01:59;7.15;;;4.30;;
75044;SDS011;63614;56.026;35.960;2022-11-18T09:04:25;5.35;;;3.30;;
75044;SDS011;63614;56.026;35.960;2022-11-18T09:06:51;6.07;;;3.85;;
75044;SDS011;63614;56.026;35.960;2022-11-18T09:09:17;5.25;;;3.53;;
75044;SDS011;63614;56.026;35.960;2022-11-18T09:11:43;6.18;;;3.80;;
75044;SDS011;63614;56.026;35.960;2022-11-18T09:14:09;6.90;;;4.45;;
75044;SDS011;63614;56.026;35.960;2022-11-18T09:16:36;7.10;;;4.20;;
75044;SDS011;63614;56.026;35.960;2022-11-18T09:19:02;8.65;;;4.93;;
75044;SDS011;63614;56.026;35.960;2022-11-18T09:21:28;7.13;;;4.43;;
75044;SDS011;63614;56.026;35.960;2022-11-18T09:23:54;8.50;;;5.15;;
75044;SDS011;63614;56.026;35.960;2022-11-18T09:26:20;6.07;;;3.65;;
75044;SDS011;63614;56.026;35.960;2022-11-18T09:28:48;6.65;;;4.10;;
75044;SDS011;63614;56.026;35.960;2022-11-18T09:31:17;8.98;;;4.00;;
75044;SDS011;63614;56.026;35.960;2022-11-18T09:33:43;6.05;;;3.67;;
75044;SDS011;63614;56.026;35.960;2022-11-18T09:36:14;4.20;;;3.08;;
75044;SDS011;63614;56.026;35.960;2022-11-18T09:38:42;7.03;;;4.97;;
75044;SDS011;63614;56.026;35.960;2022-11-18T09:49:34;9.52;;;3.88;;
75044;SDS011;63614;56.026;35.960;2022-11-18T09:52:09;5.13;;;3.70;;
75044;SDS011;63614;56.026;35.960;2022-11-18T09:54:40;6.20;;;4.35;;
75044;SDS011;63614;56.026;35.960;2022-11-18T09:57:14;6.35;;;3.60;;
75044;SDS011;63614;56.026;35.960;2022-11-18T09:59:40;6.57;;;3.63;;
75044;SDS011;63614;56.026;35.960;2022-11-18T10:05:13;6.85;;;4.22;;
75044;SDS011;63614;56.026;35.960;2022-11-18T10:07:45;7.95;;;3.95;;
75044;SDS011;63614;56.026;35.960;2022-11-18T10:13:17;6.63;;;4.25;;
75044;SDS011;63614;56.026;35.960;2022-11-18T10:18:38;8.80;;;4.38;;
75044;SDS011;63614;56.026;35.960;2022-11-18T10:23:58;7.43;;;4.70;;
75044;SDS011;63614;56.026;35.960;2022-11-18T10:26:33;10.98;;;4.80;;
75044;SDS011;63614;56.026;35.960;2022-11-18T10:29:01;7.93;;;4.85;;
75044;SDS011;63614;56.026;35.960;2022-11-18T10:31:27;6.18;;;3.65;;
75044;SDS011;63614;56.026;35.960;2022-11-18T10:33:57;8.38;;;4.45;;
75044;SDS011;63614;56.026;35.960;2022-11-18T10:36:26;10.18;;;4.68;;
75044;SDS011;63614;56.026;35.960;2022-11-18T10:41:52;6.80;;;3.95;;
75044;SDS011;63614;56.026;35.960;2022-11-18T10:44:39;5.07;;;3.33;;
75044;SDS011;63614;56.026;35.960;2022-11-18T10:49:48;8.02;;;4.68;;
75044;SDS011;63614;56.026;35.960;2022-11-18T10:52:15;8.75;;;5.10;;
75044;SDS011;63614;56.026;35.960;2022-11-18T10:54:41;6.03;;;3.78;;
75044;SDS011;63614;56.026;35.960;2022-11-18T10:57:17;9.10;;;4.20;;
75044;SDS011;63614;56.026;35.960;2022-11-18T10:59:47;10.38;;;4.63;;
75044;SDS011;63614;56.026;35.960;2022-11-18T11:02:18;7.10;;;3.85;;
75044;SDS011;63614;56.026;35.960;2022-11-18T11:04:47;17.35;;;5.75;;
75044;SDS011;63614;56.026;35.960;2022-11-18T11:07:28;10.80;;;5.20;;
75044;SDS011;63614;56.026;35.960;2022-11-18T11:12:38;5.72;;;3.58;;
75044;SDS011;63614;56.026;35.960;2022-11-18T11:15:12;6.43;;;3.80;;
75044;SDS011;63614;56.026;35.960;2022-11-18T11:17:57;8.57;;;4.70;;
75044;SDS011;63614;56.026;35.960;2022-11-18T11:20:44;6.97;;;4.10;;
75044;SDS011;63614;56.026;35.960;2022-11-18T11:23:10;9.40;;;4.72;;
75044;SDS011;63614;56.026;35.960;2022-11-18T11:36:21;11.20;;;4.60;;
75044;SDS011;63614;56.026;35.960;2022-11-18T11:42:08;5.75;;;4.13;;
75044;SDS011;63614;56.026;35.960;2022-11-18T11:44:52;6.85;;;4.32;;
75044;SDS011;63614;56.026;35.960;2022-11-18T11:50:29;8.68;;;4.60;;
75044;SDS011;63614;56.026;35.960;2022-11-18T11:59:10;8.10;;;4.70;;
75044;SDS011;63614;56.026;35.960;2022-11-18T12:09:55;6.30;;;3.63;;
75044;SDS011;63614;56.026;35.960;2022-11-18T12:15:10;10.32;;;4.68;;
75044;SDS011;63614;56.026;35.960;2022-11-18T12:17:44;6.55;;;4.07;;
75044;SDS011;63614;56.026;35.960;2022-11-18T12:28:10;7.57;;;3.92;;
75044;SDS011;63614;56.026;35.960;2022-11-18T12:31:04;8.63;;;4.70;;
75044;SDS011;63614;56.026;35.960;2022-11-18T12:34:17;6.35;;;3.85;;
75044;SDS011;63614;56.026;35.960;2022-11-18T12:36:43;6.88;;;4.25;;
75044;SDS011;63614;56.026;35.960;2022-11-18T12:44:35;15.50;;;4.03;;
75044;SDS011;63614;56.026;35.960;2022-11-18T12:47:07;7.47;;;4.72;;
75044;SDS011;63614;56.026;35.960;2022-11-18T12:52:00;12.55;;;4.90;;
75044;SDS011;63614;56.026;35.960;2022-11-18T12:54:37;10.32;;;4.72;;
75044;SDS011;63614;56.026;35.960;2022-11-18T12:57:20;7.43;;;4.30;;
75044;SDS011;63614;56.026;35.960;2022-11-18T12:59:46;7.55;;;3.95;;
75044;SDS011;63614;56.026;35.960;2022-11-18T13:02:20;15.30;;;5.25;;
75044;SDS011;63614;56.026;35.960;2022-11-18T13:05:01;7.85;;;4.53;;
75044;SDS011;63614;56.026;35.960;2022-11-18T13:08:17;9.02;;;4.30;;
75044;SDS011;63614;56.026;35.960;2022-11-18T13:11:23;8.77;;;4.35;;
75044;SDS011;63614;56.026;35.960;2022-11-18T13:13:53;9.70;;;4.60;;
75044;SDS011;63614;56.026;35.960;2022-11-18T13:16:39;9.23;;;4.78;;
75044;SDS011;63614;56.026;35.960;2022-11-18T13:19:26;8.80;;;4.35;;
75044;SDS011;63614;56.026;35.960;2022-11-18T13:21:56;8.05;;;4.38;;
75044;SDS011;63614;56.026;35.960;2022-11-18T13:24:49;6.70;;;4.22;;
75044;SDS011;63614;56.026;35.960;2022-11-18T13:27:19;8.23;;;4.78;;
75044;SDS011;63614;56.026;35.960;2022-11-18T13:30:14;7.90;;;4.13;;
75044;SDS011;63614;56.026;35.960;2022-11-18T13:32:43;10.98;;;4.97;;
75044;SDS011;63614;56.026;35.960;2022-11-18T13:35:14;5.80;;;3.13;;
75044;SDS011;63614;56.026;35.960;2022-11-18T13:40:57;12.70;;;5.00;;
75044;SDS011;63614;56.026;35.960;2022-11-18T13:43:27;9.27;;;4.15;;
75044;SDS011;63614;56.026;35.960;2022-11-18T13:45:53;8.88;;;4.75;;
75044;SDS011;63614;56.026;35.960;2022-11-18T13:48:19;6.72;;;4.45;;
75044;SDS011;63614;56.026;35.960;2022-11-18T13:50:46;7.13;;;4.47;;
75044;SDS011;63614;56.026;35.960;2022-11-18T13:55:44;9.63;;;5.40;;
75044;SDS011;63614;56.026;35.960;2022-11-18T13:58:22;9.98;;;5.20;;
75044;SDS011;63614;56.026;35.960;2022-11-18T14:00:55;11.05;;;4.65;;
75044;SDS011;63614;56.026;35.960;2022-11-18T14:03:35;5.68;;;3.47;;
75044;SDS011;63614;56.026;35.960;2022-11-18T14:06:11;7.78;;;4.30;;
75044;SDS011;63614;56.026;35.960;2022-11-18T14:08:48;8.63;;;4.47;;
75044;SDS011;63614;56.026;35.960;2022-11-18T14:11:32;8.18;;;4.45;;
75044;SDS011;63614;56.026;35.960;2022-11-18T14:14:02;7.18;;;4.53;;
75044;SDS011;63614;56.026;35.960;2022-11-18T14:18:56;10.48;;;5.50;;
75044;SDS011;63614;56.026;35.960;2022-11-18T14:21:28;8.93;;;5.55;;
75044;SDS011;63614;56.026;35.960;2022-11-18T14:23:56;8.73;;;4.78;;
75044;SDS011;63614;56.026;35.960;2022-11-18T14:26:27;8.98;;;4.80;;
75044;SDS011;63614;56.026;35.960;2022-11-18T14:28:55;8.90;;;5.07;;
75044;SDS011;63614;56.026;35.960;2022-11-18T14:31:32;10.35;;;5.18;;
75044;SDS011;63614;56.026;35.960;2022-11-18T14:36:45;8.98;;;5.30;;
75044;SDS011;63614;56.026;35.960;2022-11-18T14:41:56;10.13;;;5.85;;
75044;SDS011;63614;56.026;35.960;2022-11-18T14:44:23;8.60;;;4.70;;
75044;SDS011;63614;56.026;35.960;2022-11-18T14:46:51;11.52;;;5.68;;
75044;SDS011;63614;56.026;35.960;2022-11-18T14:49:22;9.05;;;5.18;;
75044;SDS011;63614;56.026;35.960;2022-11-18T14:54:16;8.43;;;5.40;;
75044;SDS011;63614;56.026;35.960;2022-11-18T14:56:43;12.73;;;6.28;;
75044;SDS011;63614;56.026;35.960;2022-11-18T14:59:11;8.35;;;5.68;;
75044;SDS011;63614;56.026;35.960;2022-11-18T15:01:39;8.68;;;5.70;;
75044;SDS011;63614;56.026;35.960;2022-11-18T15:04:06;11.02;;;6.47;;
75044;SDS011;63614;56.026;35.960;2022-11-18T15:06:33;11.68;;;6.75;;
75044;SDS011;63614;56.026;35.960;2022-11-18T15:09:02;10.25;;;6.13;;
75044;SDS011;63614;56.026;35.960;2022-11-18T15:11:28;11.02;;;5.50;;
75044;SDS011;63614;56.026;35.960;2022-11-18T15:13:54;13.55;;;6.43;;
75044;SDS011;63614;56.026;35.960;2022-11-18T15:16:21;10.45;;;5.60;;
75044;SDS011;63614;56.026;35.960;2022-11-18T15:18:49;10.82;;;5.88;;
75044;SDS011;63614;56.026;35.960;2022-11-18T15:21:17;10.35;;;6.15;;
75044;SDS011;63614;56.026;35.960;2022-11-18T15:23:44;9.98;;;6.43;;
75044;SDS011;63614;56.026;35.960;2022-11-18T15:26:31;14.05;;;6.70;;
75044;SDS011;63614;56.026;35.960;2022-11-18T15:29:00;10.77;;;6.32;;
75044;SDS011;63614;56.026;35.960;2022-11-18T15:31:26;10.90;;;6.32;;
75044;SDS011;63614;56.026;35.960;2022-11-18T15:33:52;12.07;;;6.43;;
75044;SDS011;63614;56.026;35.960;2022-11-18T15:36:22;14.50;;;5.95;;
75044;SDS011;63614;56.026;35.960;2022-11-18T15:38:50;11.00;;;6.22;;
75044;SDS011;63614;56.026;35.960;2022-11-18T15:43:47;12.15;;;6.28;;
75044;SDS011;63614;56.026;35.960;2022-11-18T15:46:15;11.10;;;6.00;;
75044;SDS011;63614;56.026;35.960;2022-11-18T15:48:43;15.13;;;6.88;;
75044;SDS011;63614;56.026;35.960;2022-11-18T15:51:09;11.70;;;6.50;;
75044;SDS011;63614;56.026;35.960;2022-11-18T15:53:35;11.60;;;7.13;;
75044;SDS011;63614;56.026;35.960;2022-11-18T15:56:14;10.18;;;5.95;;
75044;SDS011;63614;56.026;35.960;2022-11-18T15:59:03;10.60;;;5.88;;
75044;SDS011;63614;56.026;35.960;2022-11-18T16:01:31;11.77;;;6.20;;
75044;SDS011;63614;56.026;35.960;2022-11-18T16:03:59;10.07;;;6.22;;
75044;SDS011;63614;56.026;35.960;2022-11-18T16:06:26;10.57;;;5.80;;
75044;SDS011;63614;56.026;35.960;2022-11-18T16:08:52;10.82;;;6.05;;
75044;SDS011;63614;56.026;35.960;2022-11-18T16:11:21;10.00;;;6.05;;
75044;SDS011;63614;56.026;35.960;2022-11-18T16:14:07;12.00;;;6.57;;
75044;SDS011;63614;56.026;35.960;2022-11-18T16:16:35;15.35;;;7.05;;
75044;SDS011;63614;56.026;35.960;2022-11-18T16:19:03;14.10;;;7.10;;
75044;SDS011;63614;56.026;35.960;2022-11-18T16:21:37;11.35;;;6.90;;
75044;SDS011;63614;56.026;35.960;2022-11-18T16:24:08;12.50;;;6.97;;
75044;SDS011;63614;56.026;35.960;2022-11-18T16:26:36;10.63;;;5.95;;
75044;SDS011;63614;56.026;35.960;2022-11-18T16:29:03;11.20;;;5.45;;
75044;SDS011;63614;56.026;35.960;2022-11-18T16:31:31;9.00;;;5.32;;
75044;SDS011;63614;56.026;35.960;2022-11-18T16:36:39;8.25;;;5.75;;
75044;SDS011;63614;56.026;35.960;2022-11-18T16:39:11;9.68;;;5.50;;
75044;SDS011;63614;56.026;35.960;2022-11-18T16:41:39;8.35;;;5.07;;
75044;SDS011;63614;56.026;35.960;2022-11-18T16:44:08;10.15;;;4.90;;
75044;SDS011;63614;56.026;35.960;2022-11-18T16:46:36;8.85;;;5.32;;
75044;SDS011;63614;56.026;35.960;2022-11-18T16:49:04;9.43;;;5.85;;
75044;SDS011;63614;56.026;35.960;2022-11-18T16:51:31;9.52;;;5.38;;
75044;SDS011;63614;56.026;35.960;2022-11-18T16:54:00;10.05;;;5.35;;
75044;SDS011;63614;56.026;35.960;2022-11-18T16:56:29;9.35;;;6.28;;
75044;SDS011;63614;56.026;35.960;2022-11-18T16:58:58;8.70;;;5.50;;
75044;SDS011;63614;56.026;35.960;2022-11-18T17:01:26;7.93;;;5.80;;